createdAt,value
2023-10-15T00:00:22.459Z,9.62
2023-10-15T00:02:51.084Z,9.59
2023-10-15T00:05:28.567Z,9.47
2023-10-15T00:07:56.108Z,9.31
2023-10-15T00:10:24.400Z,9.73
2023-10-15T00:12:54.238Z,9.65
2023-10-15T00:15:22.189Z,9.64
2023-10-15T00:17:55.737Z,9.34
2023-10-15T00:20:28.282Z,9.43
2023-10-15T00:22:55.159Z,9.79
2023-10-15T00:25:21.911Z,9.45
2023-10-15T00:27:58.245Z,9.85
2023-10-15T00:30:34.617Z,9.85
2023-10-15T00:33:05.162Z,10.02
2023-10-15T00:35:37.690Z,10.00
2023-10-15T00:38:09.184Z,10.04
2023-10-15T00:40:39.267Z,9.91
2023-10-15T00:43:06.901Z,9.81
2023-10-15T00:45:45.116Z,9.83
2023-10-15T00:48:35.695Z,10.07
2023-10-15T00:56:28.040Z,10.39
2023-10-15T00:58:55.037Z,10.36
2023-10-15T01:01:27.996Z,10.41
2023-10-15T01:04:00.829Z,10.48
2023-10-15T01:06:36.044Z,11.27
2023-10-15T01:09:11.994Z,10.71
2023-10-15T01:11:45.997Z,10.54
2023-10-15T01:14:13.286Z,10.57
2023-10-15T01:16:41.606Z,10.54
2023-10-15T01:19:11.981Z,10.60
2023-10-15T01:21:50.208Z,10.53
2023-10-15T01:24:21.016Z,10.24
2023-10-15T01:27:11.839Z,10.06
2023-10-15T01:29:43.801Z,9.71
2023-10-15T01:32:20.692Z,8.96
2023-10-15T01:34:50.219Z,9.43
2023-10-15T01:37:24.545Z,10.80
2023-10-15T01:40:23.843Z,9.07
2023-10-15T01:42:55.413Z,8.88
2023-10-15T01:45:36.670Z,10.15
2023-10-15T01:48:07.087Z,9.89
2023-10-15T01:51:03.510Z,9.52
2023-10-15T01:53:30.105Z,9.84
2023-10-15T01:56:00.919Z,9.45
2023-10-15T01:58:34.133Z,9.05
2023-10-15T02:01:15.154Z,9.05
2023-10-15T02:03:45.276Z,9.16
2023-10-15T02:06:11.975Z,8.96
2023-10-15T02:08:40.859Z,8.95
2023-10-15T02:11:22.669Z,8.83
2023-10-15T02:13:50.140Z,8.83
2023-10-15T02:16:19.086Z,10.35
2023-10-15T02:18:46.411Z,9.70
2023-10-15T02:21:17.575Z,9.22
2023-10-15T02:23:52.262Z,9.75
2023-10-15T02:26:24.456Z,9.11
2023-10-15T02:28:57.252Z,9.50
2023-10-15T02:31:24.361Z,9.51
2023-10-15T02:33:52.154Z,9.29
2023-10-15T02:36:19.064Z,9.38
2023-10-15T02:38:54.808Z,9.41
2023-10-15T02:41:40.331Z,9.32
2023-10-15T02:44:14.021Z,8.57
2023-10-15T02:46:49.294Z,8.29
2023-10-15T02:49:19.454Z,8.68
2023-10-15T02:51:49.546Z,8.52
2023-10-15T02:54:29.061Z,8.16
2023-10-15T02:57:01.298Z,8.52
2023-10-15T02:59:31.680Z,8.27
2023-10-15T03:02:07.949Z,8.16
2023-10-15T03:04:35.177Z,7.99
2023-10-15T03:07:20.733Z,8.25
2023-10-15T03:09:51.647Z,7.82
2023-10-15T03:12:19.412Z,7.63
2023-10-15T03:14:46.791Z,7.59
2023-10-15T03:17:25.351Z,7.88
2023-10-15T03:20:11.530Z,9.47
2023-10-15T03:22:39.523Z,9.42
2023-10-15T03:25:14.617Z,9.67
2023-10-15T03:27:48.058Z,9.45
2023-10-15T03:30:15.868Z,9.17
2023-10-15T03:32:45.917Z,9.42
2023-10-15T03:35:20.081Z,10.05
2023-10-15T03:37:47.474Z,9.80
2023-10-15T03:40:52.914Z,9.74
2023-10-15T03:43:22.536Z,9.94
2023-10-15T03:45:52.608Z,9.58
2023-10-15T03:48:29.616Z,9.40
2023-10-15T03:50:57.711Z,9.65
2023-10-15T03:53:36.943Z,9.44
2023-10-15T03:56:05.611Z,9.63
2023-10-15T03:58:32.981Z,9.69
2023-10-15T04:01:18.640Z,9.98
2023-10-15T04:03:49.049Z,9.33
2023-10-15T04:06:20.294Z,9.17
2023-10-15T04:09:05.720Z,9.12
2023-10-15T04:11:43.818Z,9.23
2023-10-15T04:14:38.646Z,9.55
2023-10-15T04:17:07.976Z,9.56
2023-10-15T04:19:37.480Z,9.29
2023-10-15T04:22:30.512Z,9.03
2023-10-15T04:24:57.130Z,9.51
2023-10-15T04:27:25.758Z,9.62
2023-10-15T04:29:54.969Z,9.34
2023-10-15T04:32:46.562Z,9.40
2023-10-15T04:35:42.839Z,9.62
2023-10-15T04:38:09.519Z,11.71
2023-10-15T04:40:54.953Z,11.51
2023-10-15T04:43:27.848Z,10.38
2023-10-15T04:45:56.204Z,10.32
2023-10-15T04:48:34.175Z,10.28
2023-10-15T04:51:06.325Z,9.79
2023-10-15T04:53:33.177Z,9.71
2023-10-15T04:56:02.390Z,9.49
2023-10-15T04:58:29.385Z,9.28
2023-10-15T05:00:56.218Z,9.42
2023-10-15T05:03:22.822Z,9.41
2023-10-15T05:05:49.520Z,9.29
2023-10-15T05:08:18.785Z,9.21
2023-10-15T05:10:51.983Z,9.20
2023-10-15T05:13:20.754Z,9.41
2023-10-15T05:15:51.182Z,9.12
2023-10-15T05:18:20.467Z,8.97
2023-10-15T05:20:52.157Z,8.48
2023-10-15T05:23:20.685Z,8.61
2023-10-15T05:25:51.368Z,8.42
2023-10-15T05:28:18.356Z,8.99
2023-10-15T05:30:44.957Z,9.08
2023-10-15T05:33:11.691Z,9.13
2023-10-15T05:35:41.845Z,9.13
2023-10-15T05:38:10.576Z,9.17
2023-10-15T05:40:38.721Z,9.16
2023-10-15T05:43:08.353Z,9.07
2023-10-15T05:45:35.124Z,9.20
2023-10-15T05:48:02.512Z,8.32
2023-10-15T05:50:29.782Z,9.00
2023-10-15T05:52:56.691Z,8.75
2023-10-15T05:55:23.576Z,9.25
2023-10-15T05:57:50.270Z,8.63
2023-10-15T06:00:20.697Z,9.14
2023-10-15T06:02:48.673Z,9.04
2023-10-15T06:05:16.048Z,9.09
2023-10-15T06:07:44.121Z,8.75
2023-10-15T06:10:13.073Z,9.00
2023-10-15T06:12:40.858Z,9.03
2023-10-15T06:15:09.125Z,9.09
2023-10-15T06:17:36.393Z,9.04
2023-10-15T06:20:14.223Z,9.34
2023-10-15T06:22:46.944Z,9.47
2023-10-15T06:25:15.206Z,9.35
2023-10-15T06:27:42.645Z,9.61
2023-10-15T06:30:18.833Z,8.94
2023-10-15T06:32:49.382Z,8.94
2023-10-15T06:35:20.373Z,9.35
2023-10-15T06:37:48.393Z,8.99
2023-10-15T06:40:23.238Z,9.08
2023-10-15T06:42:53.229Z,9.22
2023-10-15T06:45:21.286Z,9.43
2023-10-15T06:47:50.771Z,9.41
2023-10-15T06:50:17.804Z,9.21
2023-10-15T06:52:44.479Z,8.84
2023-10-15T06:55:12.681Z,8.88
2023-10-15T06:57:42.169Z,9.21
2023-10-15T07:00:10.702Z,9.00
2023-10-15T07:02:37.819Z,8.83
2023-10-15T07:05:05.901Z,9.19
2023-10-15T07:07:35.239Z,9.42
2023-10-15T07:10:05.939Z,8.99
2023-10-15T07:12:33.614Z,9.05
2023-10-15T07:15:00.669Z,8.48
2023-10-15T07:17:27.438Z,8.97
2023-10-15T07:19:54.324Z,8.87
2023-10-15T07:22:22.092Z,9.27
2023-10-15T07:24:48.784Z,8.47
2023-10-15T07:27:16.457Z,9.06
2023-10-15T07:29:43.097Z,8.84
2023-10-15T07:32:09.865Z,9.20
2023-10-15T07:34:36.486Z,9.04
2023-10-15T07:37:03.224Z,8.96
2023-10-15T07:39:29.927Z,8.76
2023-10-15T07:41:56.532Z,9.11
2023-10-15T07:44:23.225Z,8.83
2023-10-15T07:46:54.179Z,9.26
2023-10-15T07:49:21.516Z,8.85
2023-10-15T07:51:48.910Z,9.20
2023-10-15T07:54:16.258Z,9.36
2023-10-15T07:56:42.904Z,9.56
2023-10-15T07:59:09.817Z,9.18
2023-10-15T08:01:38.321Z,9.59
2023-10-15T08:04:13.245Z,8.70
2023-10-15T08:06:41.855Z,9.11
2023-10-15T08:09:11.386Z,8.97
2023-10-15T08:11:38.037Z,8.91
2023-10-15T08:14:04.921Z,9.09
2023-10-15T08:16:31.620Z,9.03
2023-10-15T08:19:00.278Z,9.22
2023-10-15T08:21:26.900Z,9.08
2023-10-15T08:23:54.628Z,8.88
2023-10-15T08:26:21.344Z,8.86
2023-10-15T08:28:49.625Z,8.79
2023-10-15T08:31:16.233Z,9.19
2023-10-15T08:33:45.971Z,9.22
2023-10-15T08:36:15.887Z,9.21
2023-10-15T08:38:42.686Z,9.20
2023-10-15T08:41:12.492Z,8.82
2023-10-15T08:43:42.111Z,9.26
2023-10-15T08:46:11.282Z,9.05
2023-10-15T08:48:42.137Z,9.43
2023-10-15T08:51:14.264Z,9.80
2023-10-15T08:53:42.499Z,9.11
2023-10-15T08:56:10.756Z,8.49
2023-10-15T08:58:38.394Z,8.61
2023-10-15T09:01:05.930Z,8.32
2023-10-15T09:03:32.777Z,8.04
2023-10-15T09:06:02.794Z,8.56
2023-10-15T09:08:30.082Z,8.57
2023-10-15T09:10:56.804Z,8.72
2023-10-15T09:13:27.259Z,8.44
2023-10-15T09:15:54.193Z,8.59
2023-10-15T09:18:21.674Z,8.96
2023-10-15T09:20:53.206Z,9.02
2023-10-15T09:23:23.905Z,9.70
2023-10-15T09:25:57.605Z,9.51
2023-10-15T09:28:24.972Z,9.88
2023-10-15T09:30:53.072Z,9.43
2023-10-15T09:33:28.606Z,9.25
2023-10-15T09:35:55.200Z,9.11
2023-10-15T09:38:22.126Z,9.30
2023-10-15T09:40:48.818Z,9.54
2023-10-15T09:43:16.804Z,9.70
2023-10-15T09:45:44.160Z,9.37
2023-10-15T09:48:11.526Z,9.75
2023-10-15T09:50:43.127Z,9.98
2023-10-15T09:53:11.066Z,9.82
2023-10-15T09:55:39.542Z,9.42
2023-10-15T09:58:10.534Z,9.05
2023-10-15T10:00:54.961Z,9.20
2023-10-15T10:03:40.300Z,9.23
2023-10-15T10:06:45.553Z,9.13
2023-10-15T10:09:12.282Z,9.57
2023-10-15T10:12:06.429Z,10.21
2023-10-15T10:14:58.107Z,10.24
2023-10-15T10:17:27.018Z,11.94
2023-10-15T10:19:54.820Z,12.07
2023-10-15T10:22:24.905Z,11.26
2023-10-15T10:24:52.125Z,11.43
2023-10-15T10:27:19.257Z,10.51
2023-10-15T10:29:51.703Z,10.97
2023-10-15T10:32:19.206Z,10.64
2023-10-15T10:34:48.808Z,10.82
2023-10-15T10:37:22.810Z,10.87
2023-10-15T10:39:50.493Z,10.85
2023-10-15T10:42:23.193Z,11.08
2023-10-15T10:44:49.934Z,10.39
2023-10-15T10:47:19.446Z,10.79
2023-10-15T10:49:57.212Z,11.29
2023-10-15T10:52:37.095Z,11.19
2023-10-15T10:55:33.124Z,11.30
2023-10-15T10:58:03.860Z,11.24
2023-10-15T11:00:32.156Z,11.58
2023-10-15T11:03:02.794Z,11.40
2023-10-15T11:05:31.051Z,11.22
2023-10-15T11:07:57.760Z,10.96
2023-10-15T11:10:27.067Z,11.07
2023-10-15T11:12:53.800Z,10.87
2023-10-15T11:15:21.529Z,10.79
2023-10-15T11:17:58.366Z,11.19
2023-10-15T11:20:28.604Z,11.64
2023-10-15T11:22:55.643Z,11.29
2023-10-15T11:25:24.806Z,11.20
2023-10-15T11:27:52.161Z,11.23
2023-10-15T11:30:21.466Z,10.55
2023-10-15T11:32:48.957Z,10.83
2023-10-15T11:35:16.873Z,11.21
2023-10-15T11:37:46.477Z,11.44
2023-10-15T11:40:15.109Z,11.08
2023-10-15T11:43:00.115Z,11.31
2023-10-15T11:45:27.341Z,11.55
2023-10-15T11:47:56.685Z,10.72
2023-10-15T11:50:24.946Z,10.32
2023-10-15T11:52:53.839Z,10.63
2023-10-15T11:55:23.986Z,10.67
2023-10-15T11:57:51.778Z,11.08
2023-10-15T12:00:24.473Z,11.17
2023-10-15T12:02:57.965Z,11.64
2023-10-15T12:05:24.916Z,11.76
2023-10-15T12:07:54.342Z,11.92
2023-10-15T12:10:23.252Z,12.05
2023-10-15T12:12:50.896Z,12.04
2023-10-15T12:15:17.631Z,11.91
2023-10-15T12:17:44.225Z,12.41
2023-10-15T12:20:19.620Z,12.53
2023-10-15T12:22:47.054Z,12.85
2023-10-15T12:25:13.841Z,13.06
2023-10-15T12:27:40.665Z,12.36
2023-10-15T12:30:13.802Z,12.45
2023-10-15T12:32:46.652Z,12.58
2023-10-15T12:35:14.416Z,12.36
2023-10-15T12:37:41.122Z,12.71
2023-10-15T12:40:14.166Z,11.95
2023-10-15T12:42:41.609Z,12.28
2023-10-15T12:45:14.924Z,12.37
2023-10-15T12:47:41.867Z,12.13
2023-10-15T12:50:17.985Z,12.43
2023-10-15T12:52:46.681Z,12.38
2023-10-15T12:55:16.725Z,12.57
2023-10-15T12:57:43.539Z,12.65
2023-10-15T13:00:18.613Z,12.30
2023-10-15T13:02:46.874Z,12.07
2023-10-15T13:05:14.849Z,12.32
2023-10-15T13:07:42.893Z,12.14
2023-10-15T13:10:11.052Z,12.18
2023-10-15T13:12:38.848Z,12.06
2023-10-15T13:15:11.682Z,12.21
2023-10-15T13:17:41.265Z,12.08
2023-10-15T13:20:11.944Z,12.44
2023-10-15T13:22:39.803Z,12.36
2023-10-15T13:25:07.713Z,12.01
2023-10-15T13:27:39.572Z,12.40
2023-10-15T13:30:07.511Z,12.53
2023-10-15T13:32:34.634Z,12.93
2023-10-15T13:35:01.834Z,12.71
2023-10-15T13:37:28.737Z,12.44
2023-10-15T13:39:57.570Z,11.43
2023-10-15T13:42:24.491Z,11.54
2023-10-15T13:44:51.350Z,11.28
2023-10-15T13:47:18.332Z,11.23
2023-10-15T13:49:45.725Z,11.19
2023-10-15T13:52:13.685Z,11.71
2023-10-15T13:54:40.780Z,11.58
2023-10-15T13:57:10.195Z,11.58
2023-10-15T13:59:38.722Z,11.73
2023-10-15T14:02:08.595Z,11.06
2023-10-15T14:04:35.583Z,11.65
2023-10-15T14:07:02.236Z,11.60
2023-10-15T14:09:35.141Z,11.58
2023-10-15T14:12:02.826Z,10.89
2023-10-15T14:14:29.682Z,11.51
2023-10-15T14:16:56.688Z,11.81
2023-10-15T14:19:23.520Z,11.89
2023-10-15T14:21:50.326Z,12.08
2023-10-15T14:24:19.788Z,11.97
2023-10-15T14:26:46.598Z,12.09
2023-10-15T14:29:16.465Z,12.13
2023-10-15T14:31:43.264Z,12.07
2023-10-15T14:34:10.063Z,12.07
2023-10-15T14:36:40.544Z,12.22
2023-10-15T14:39:09.004Z,11.66
2023-10-15T14:41:38.468Z,12.18
2023-10-15T14:44:05.554Z,12.26
2023-10-15T14:46:38.323Z,12.07
2023-10-15T14:49:05.963Z,11.77
2023-10-15T14:51:33.016Z,11.99
2023-10-15T14:54:01.042Z,11.83
2023-10-15T14:56:29.613Z,11.86
2023-10-15T14:58:56.262Z,11.41
2023-10-15T15:01:22.936Z,11.80
2023-10-15T15:03:49.597Z,11.68
2023-10-15T15:06:16.755Z,12.38
2023-10-15T15:08:43.406Z,12.20
2023-10-15T15:11:10.406Z,12.29
2023-10-15T15:13:37.331Z,12.14
2023-10-15T15:16:04.505Z,12.25
2023-10-15T15:18:32.446Z,12.13
2023-10-15T15:21:03.631Z,11.87
2023-10-15T15:23:30.581Z,12.02
2023-10-15T15:26:06.711Z,12.02
2023-10-15T15:28:34.592Z,11.94
2023-10-15T15:31:02.364Z,12.03
2023-10-15T15:33:29.858Z,11.92
2023-10-15T15:35:56.970Z,11.82
2023-10-15T15:38:23.925Z,11.76
2023-10-15T15:40:56.421Z,11.65
2023-10-15T15:43:26.441Z,11.78
2023-10-15T15:45:53.547Z,11.11
2023-10-15T15:48:24.442Z,11.48
2023-10-15T15:50:51.332Z,11.55
2023-10-15T15:53:17.962Z,11.08
2023-10-15T15:55:45.637Z,11.12
2023-10-15T15:58:12.462Z,11.59
2023-10-15T16:00:39.589Z,11.83
2023-10-15T16:03:09.775Z,11.56
2023-10-15T16:05:38.267Z,11.63
2023-10-15T16:08:07.505Z,11.84
2023-10-15T16:10:34.438Z,11.46
2023-10-15T16:13:01.121Z,11.58
2023-10-15T16:15:28.191Z,11.72
2023-10-15T16:17:55.581Z,11.72
2023-10-15T16:20:22.652Z,11.66
2023-10-15T16:22:50.929Z,11.49
2023-10-15T16:25:20.384Z,11.03
2023-10-15T16:27:47.206Z,11.29
2023-10-15T16:30:13.882Z,11.25
2023-10-15T16:32:41.413Z,11.12
2023-10-15T16:35:17.812Z,11.17
2023-10-15T16:37:44.880Z,11.12
2023-10-15T16:40:14.452Z,11.32
2023-10-15T16:42:41.228Z,10.81
2023-10-15T16:45:09.433Z,11.11
2023-10-15T16:47:39.066Z,11.00
2023-10-15T16:50:07.236Z,10.81
2023-10-15T16:52:33.919Z,10.87
2023-10-15T16:55:00.505Z,10.79
2023-10-15T16:57:27.283Z,10.54
2023-10-15T17:00:00.771Z,10.47
2023-10-15T17:02:29.385Z,10.70
2023-10-15T17:04:59.265Z,10.60
2023-10-15T17:07:26.250Z,10.08
2023-10-15T17:09:54.811Z,10.29
2023-10-15T17:12:21.961Z,10.79
2023-10-15T17:14:48.791Z,10.50
2023-10-15T17:17:15.994Z,10.75
2023-10-15T17:19:42.582Z,10.73
2023-10-15T17:22:09.219Z,10.79
2023-10-15T17:24:36.676Z,10.69
2023-10-15T17:27:03.607Z,10.56
2023-10-15T17:29:30.353Z,10.48
2023-10-15T17:31:58.733Z,10.30
2023-10-15T17:34:27.679Z,10.20
2023-10-15T17:37:03.386Z,10.51
2023-10-15T17:39:35.400Z,10.59
2023-10-15T17:42:04.303Z,10.59
2023-10-15T17:44:30.929Z,10.56
2023-10-15T17:46:57.626Z,10.45
2023-10-15T17:49:24.685Z,10.31
2023-10-15T17:51:53.490Z,10.33
2023-10-15T17:54:20.130Z,10.39
2023-10-15T17:56:46.977Z,10.39
2023-10-15T17:59:15.299Z,10.22
2023-10-15T18:01:42.008Z,10.27
2023-10-15T18:04:08.843Z,9.38
2023-10-15T18:06:38.249Z,9.11
2023-10-15T18:09:05.066Z,8.96
2023-10-15T18:11:31.809Z,8.69
2023-10-15T18:13:58.669Z,8.49
2023-10-15T18:16:25.286Z,8.73
2023-10-15T18:18:56.154Z,8.75
2023-10-15T18:21:23.078Z,8.50
2023-10-15T18:23:49.922Z,8.91
2023-10-15T18:26:18.147Z,8.93
2023-10-15T18:28:44.698Z,8.91
2023-10-15T18:31:11.437Z,9.00
2023-10-15T18:33:38.099Z,9.00
2023-10-15T18:36:05.121Z,9.05
2023-10-15T18:38:31.783Z,9.04
2023-10-15T18:40:58.498Z,9.08
2023-10-15T18:43:28.230Z,9.34
2023-10-15T18:45:54.851Z,9.27
2023-10-15T18:48:21.875Z,9.27
2023-10-15T18:50:48.593Z,9.30
2023-10-15T18:53:15.199Z,9.21
2023-10-15T18:55:42.576Z,9.19
2023-10-15T18:58:09.162Z,9.09
2023-10-15T19:00:36.061Z,8.62
2023-10-15T19:03:04.415Z,8.95
2023-10-15T19:05:36.319Z,9.10
2023-10-15T19:08:06.236Z,9.12
2023-10-15T19:10:34.193Z,9.06
2023-10-15T19:13:00.810Z,9.09
2023-10-15T19:15:27.708Z,8.91
2023-10-15T19:17:54.588Z,8.75
2023-10-15T19:20:21.255Z,9.11
2023-10-15T19:22:48.742Z,9.00
2023-10-15T19:25:16.170Z,8.95
2023-10-15T19:27:46.316Z,8.84
2023-10-15T19:30:15.662Z,8.57
2023-10-15T19:32:43.249Z,8.89
2023-10-15T19:35:11.694Z,8.89
2023-10-15T19:37:40.242Z,8.38
2023-10-15T19:40:11.219Z,8.93
2023-10-15T19:42:38.971Z,8.90
2023-10-15T19:45:08.106Z,8.83
2023-10-15T19:47:35.459Z,8.96
2023-10-15T19:50:02.225Z,9.05
2023-10-15T19:52:29.515Z,8.96
2023-10-15T19:54:58.983Z,8.52
2023-10-15T19:57:25.690Z,8.88
2023-10-15T19:59:52.353Z,8.93
2023-10-15T20:02:19.007Z,8.69
2023-10-15T20:04:45.793Z,9.10
2023-10-15T20:07:12.469Z,9.30
2023-10-15T20:09:39.206Z,9.28
2023-10-15T20:12:06.106Z,9.21
2023-10-15T20:14:32.978Z,9.49
2023-10-15T20:17:00.711Z,9.40
2023-10-15T20:19:28.537Z,9.57
2023-10-15T20:21:56.553Z,9.22
2023-10-15T20:24:23.198Z,9.03
2023-10-15T20:26:49.938Z,8.92
2023-10-15T20:29:16.605Z,8.73
2023-10-15T20:31:44.996Z,8.80
2023-10-15T20:34:13.255Z,8.83
2023-10-15T20:36:40.320Z,8.69
2023-10-15T20:39:10.470Z,8.62
2023-10-15T20:41:39.731Z,8.66
2023-10-15T20:44:06.355Z,8.68
2023-10-15T20:46:34.157Z,8.65
2023-10-15T20:49:01.065Z,8.77
2023-10-15T20:51:27.708Z,8.66
2023-10-15T20:53:54.396Z,8.59
2023-10-15T20:56:20.959Z,8.75
2023-10-15T20:58:47.495Z,8.69
2023-10-15T21:01:14.163Z,8.85
2023-10-15T21:03:40.933Z,8.81
2023-10-15T21:06:08.216Z,8.54
2023-10-15T21:08:35.194Z,8.65
2023-10-15T21:11:02.235Z,8.61
2023-10-15T21:13:28.930Z,8.04
2023-10-15T21:15:55.706Z,8.36
2023-10-15T21:18:22.440Z,8.31
2023-10-15T21:20:49.084Z,8.40
2023-10-15T21:23:15.666Z,8.10
2023-10-15T21:25:42.430Z,8.01
2023-10-15T21:28:09.252Z,8.22
2023-10-15T21:30:36.171Z,8.33
2023-10-15T21:33:04.372Z,8.34
2023-10-15T21:35:31.283Z,8.39
2023-10-15T21:37:59.461Z,8.13
2023-10-15T21:40:26.044Z,7.96
2023-10-15T21:42:52.814Z,8.19
2023-10-15T21:45:20.541Z,8.05
2023-10-15T21:47:47.313Z,7.90
2023-10-15T21:50:14.580Z,8.09
2023-10-15T21:52:41.245Z,8.04
2023-10-15T21:55:08.820Z,8.01
2023-10-15T21:57:35.501Z,7.97
2023-10-15T22:00:02.166Z,7.92
2023-10-15T22:02:30.172Z,7.91
2023-10-15T22:04:56.983Z,7.98
2023-10-15T22:07:23.608Z,8.01
2023-10-15T22:09:50.229Z,8.05
2023-10-15T22:12:20.214Z,8.17
2023-10-15T22:14:47.088Z,8.14
2023-10-15T22:17:15.898Z,8.12
2023-10-15T22:19:44.169Z,8.03
2023-10-15T22:22:12.376Z,7.87
2023-10-15T22:24:42.326Z,7.99
2023-10-15T22:27:15.100Z,7.95
2023-10-15T22:29:45.275Z,7.93
2023-10-15T22:32:12.435Z,7.78
2023-10-15T22:34:39.748Z,7.87
2023-10-15T22:37:09.519Z,7.86
2023-10-15T22:39:39.526Z,7.61
2023-10-15T22:42:12.549Z,7.78
2023-10-15T22:44:46.278Z,7.81
2023-10-15T22:47:14.157Z,7.64
2023-10-15T22:49:41.832Z,7.83
2023-10-15T22:52:08.970Z,7.78
2023-10-15T22:54:35.898Z,7.72
2023-10-15T22:57:04.715Z,7.83
2023-10-15T22:59:31.784Z,7.71
2023-10-15T23:01:58.571Z,7.76
2023-10-15T23:04:25.364Z,7.13
2023-10-15T23:06:52.466Z,7.53
2023-10-15T23:09:19.583Z,7.64
2023-10-15T23:11:46.975Z,7.62
2023-10-15T23:14:13.709Z,6.81
2023-10-15T23:16:41.287Z,7.80
2023-10-15T23:19:08.025Z,7.62
2023-10-15T23:21:37.447Z,7.31
2023-10-15T23:24:08.688Z,7.32
2023-10-15T23:26:36.498Z,7.58
2023-10-15T23:29:06.581Z,7.67
2023-10-15T23:31:33.341Z,7.45
2023-10-15T23:34:00.159Z,7.58
2023-10-15T23:36:30.329Z,7.73
2023-10-15T23:38:57.117Z,7.73
2023-10-15T23:41:23.794Z,7.57
2023-10-15T23:43:51.869Z,7.59
2023-10-15T23:46:18.645Z,7.79
2023-10-15T23:48:53.209Z,7.82
2023-10-15T23:51:22.618Z,7.60
2023-10-15T23:53:53.585Z,7.70
2023-10-15T23:56:27.388Z,7.21
2023-10-15T23:59:03.598Z,7.63
